Time;durP1;ratioP1;P1;durP2;ratioP2;P2;SDS_P1;SDS_P2;PMS_P1;PMS_P2;Temp;Humidity;BMP_temperature;BMP_pressure;BME280_temperature;BME280_humidity;BME280_pressure;Samples;Min_cycle;Max_cycle;Signal;HPM_P1;HPM_P2
2021/09/14 00:02:02;;;;;;;7.80;7.20;;;18.40;70.90;;;;;;5094725;28;20439;-75
2021/09/14 00:04:29;;;;;;;8.37;7.67;;;18.40;71.10;;;;;;5094537;28;20420;-75
2021/09/14 00:06:58;;;;;;;7.17;6.67;;;18.30;71.90;;;;;;5094642;28;20448;-75
2021/09/14 00:09:24;;;;;;;9.43;8.33;;;18.30;71.40;;;;;;5094600;28;20497;-75
2021/09/14 00:11:51;;;;;;;8.23;7.53;;;18.30;71.50;;;;;;5094542;28;20447;-75
2021/09/14 00:14:18;;;;;;;7.60;7.00;;;18.30;71.70;;;;;;5094701;28;20431;-75
2021/09/14 00:16:44;;;;;;;9.47;7.73;;;18.20;71.80;;;;;;5094139;28;20920;-75
2021/09/14 00:19:11;;;;;;;8.70;7.90;;;18.20;71.90;;;;;;5094403;28;20451;-75
2021/09/14 00:21:38;;;;;;;8.17;7.37;;;18.20;72.00;;;;;;5094621;28;20469;-75
2021/09/14 00:24:06;;;;;;;8.30;7.60;;;18.20;71.90;;;;;;5094009;28;20955;-75
2021/09/14 00:26:33;;;;;;;8.97;8.27;;;18.10;71.80;;;;;;5094077;28;20487;-75
2021/09/14 00:29:00;;;;;;;9.27;8.40;;;18.10;72.20;;;;;;5093913;28;20936;-75
2021/09/14 00:31:27;;;;;;;8.60;7.90;;;18.10;72.40;;;;;;5094187;28;20447;-75
2021/09/14 00:33:54;;;;;;;8.10;7.37;;;18.10;72.60;;;;;;5094228;28;20485;-75
2021/09/14 00:36:21;;;;;;;8.70;7.23;;;18.00;72.40;;;;;;5094053;28;20550;-75
2021/09/14 00:38:47;;;;;;;7.53;6.83;;;18.00;72.30;;;;;;5094327;28;20447;-75
2021/09/14 00:41:15;;;;;;;8.10;7.50;;;17.90;72.30;;;;;;5093775;28;20916;-75
2021/09/14 00:43:42;;;;;;;9.00;8.10;;;17.90;72.20;;;;;;5093991;28;20447;-75
2021/09/14 00:46:09;;;;;;;8.87;7.60;;;17.90;72.10;;;;;;5093691;28;20510;-75
2021/09/14 00:48:35;;;;;;;8.47;7.60;;;17.90;72.30;;;;;;5093620;28;20963;-75
2021/09/14 00:51:03;;;;;;;8.60;7.73;;;17.80;72.40;;;;;;5093887;28;20500;-75
2021/09/14 00:53:29;;;;;;;8.60;7.90;;;17.80;72.40;;;;;;5094126;28;20471;-75
2021/09/14 00:55:57;;;;;;;8.77;8.07;;;17.80;72.60;;;;;;5093718;28;20456;-75
2021/09/14 00:58:26;;;;;;;9.37;8.57;;;17.80;72.90;;;;;;5093858;28;20432;-75
2021/09/14 01:00:52;;;;;;;8.80;8.10;;;17.80;73.00;;;;;;5093394;28;20828;-75
2021/09/14 01:03:19;;;;;;;9.23;8.53;;;17.80;73.40;;;;;;5093452;28;20866;-75
2021/09/14 01:05:46;;;;;;;9.70;8.80;;;17.80;73.50;;;;;;5093633;28;20494;-75
2021/09/14 01:08:13;;;;;;;10.70;9.70;;;17.80;73.60;;;;;;5093517;28;20447;-75
2021/09/14 01:10:40;;;;;;;10.00;9.10;;;17.70;73.80;;;;;;5093790;28;20467;-75
2021/09/14 01:13:07;;;;;;;11.23;10.20;;;17.70;74.20;;;;;;5094352;28;20447;-75
2021/09/14 01:15:35;;;;;;;11.03;10.10;;;17.70;74.50;;;;;;5095275;28;20547;-75
2021/09/14 01:18:03;;;;;;;12.00;10.87;;;17.70;74.70;;;;;;5093610;28;20443;-75
2021/09/14 01:20:30;;;;;;;11.60;10.60;;;17.60;74.90;;;;;;5093657;28;20494;-75
2021/09/14 01:22:58;;;;;;;14.03;11.50;;;17.60;75.10;;;;;;5093783;28;20448;-75
2021/09/14 01:25:25;;;;;;;11.00;9.90;;;17.60;75.20;;;;;;5093372;28;20480;-75
2021/09/14 01:27:56;;;;;;;12.20;11.30;;;17.60;75.10;;;;;;5093465;28;20447;-75
2021/09/14 01:30:23;;;;;;;11.17;10.10;;;17.60;75.30;;;;;;5093508;28;20475;-75
2021/09/14 01:32:51;;;;;;;12.13;11.13;;;17.60;75.50;;;;;;5093486;28;20428;-75
2021/09/14 01:35:20;;;;;;;15.97;11.27;;;17.60;76.00;;;;;;5093381;28;20459;-75
2021/09/14 01:37:47;;;;;;;12.10;11.00;;;17.60;76.30;;;;;;5093426;28;20497;-75
2021/09/14 01:40:16;;;;;;;13.47;12.27;;;17.60;76.40;;;;;;5093411;28;20444;-75
2021/09/14 01:42:44;;;;;;;12.90;11.60;;;17.70;76.60;;;;;;5093396;28;20456;-75
2021/09/14 01:45:12;;;;;;;13.83;12.53;;;17.70;76.80;;;;;;5092952;28;20475;-75
2021/09/14 01:47:39;;;;;;;12.80;11.60;;;17.70;76.80;;;;;;5093314;28;20470;-75
2021/09/14 01:50:09;;;;;;;13.43;12.13;;;17.70;76.70;;;;;;5093340;28;20439;-75
2021/09/14 01:52:36;;;;;;;12.33;11.23;;;17.70;76.60;;;;;;5093531;28;20439;-75
2021/09/14 01:55:03;;;;;;;14.33;13.03;;;17.70;76.50;;;;;;5093170;28;20464;-75
2021/09/14 01:57:33;;;;;;;12.57;11.50;;;17.70;76.40;;;;;;5093226;28;20444;-75
2021/09/14 02:00:02;;;;;;;13.07;11.77;;;17.60;76.40;;;;;;5093243;28;20481;-75
2021/09/14 02:02:43;;;;;;;13.40;12.20;;;17.60;76.50;;;;;;5093170;28;20454;-75
2021/09/14 02:05:13;;;;;;;11.97;10.83;;;17.60;76.50;;;;;;5093039;28;20554;-75
2021/09/14 02:08:00;;;;;;;12.40;11.30;;;17.60;76.50;;;;;;5093394;28;20444;-75
2021/09/14 02:29:56;;;;;;;14.17;12.67;;;17.50;77.20;;;;;;5096973;28;20400;-75
2021/09/14 02:38:31;;;;;;;13.90;12.70;;;17.40;77.70;;;;;;5096484;28;20939;-75
2021/09/14 02:41:20;;;;;;;15.80;14.30;;;17.40;77.80;;;;;;5096330;28;20652;-75
2021/09/14 03:00:11;;;;;;;16.20;14.80;;;17.30;78.70;;;;;;5096303;28;20442;-75
2021/09/14 03:02:39;;;;;;;16.43;14.90;;;17.30;78.90;;;;;;5095964;28;20440;-75
2021/09/14 03:05:07;;;;;;;16.90;15.40;;;17.30;79.10;;;;;;5095540;28;20550;-75
2021/09/14 03:07:34;;;;;;;15.57;14.23;;;17.30;79.00;;;;;;5095507;28;20436;-75
2021/09/14 03:10:00;;;;;;;16.00;14.60;;;17.30;79.00;;;;;;5095449;28;20929;-75
2021/09/14 03:12:27;;;;;;;15.90;14.47;;;17.30;79.10;;;;;;5095772;28;20780;-75
2021/09/14 03:14:54;;;;;;;16.17;14.67;;;17.30;79.10;;;;;;5095579;28;20459;-75
2021/09/14 03:17:21;;;;;;;17.97;16.27;;;17.20;79.00;;;;;;5095620;28;20440;-75
2021/09/14 03:19:49;;;;;;;16.87;15.23;;;17.30;79.40;;;;;;5095594;28;20436;-75
2021/09/14 03:22:15;;;;;;;17.23;15.63;;;17.30;79.70;;;;;;5095500;28;20463;-75
2021/09/14 03:24:42;;;;;;;15.80;14.30;;;17.20;79.70;;;;;;5095410;28;20468;-75
2021/09/14 03:27:09;;;;;;;16.30;14.90;;;17.20;79.80;;;;;;5095593;28;20472;-75
2021/09/14 03:29:36;;;;;;;15.60;14.17;;;17.20;80.00;;;;;;5095440;28;20444;-75
2021/09/14 03:32:03;;;;;;;17.57;15.70;;;17.20;80.20;;;;;;5095336;28;20444;-75
2021/09/14 03:34:30;;;;;;;16.07;14.57;;;17.20;80.40;;;;;;5094929;28;20946;-75
2021/09/14 03:36:58;;;;;;;15.57;14.17;;;17.20;80.50;;;;;;5095229;28;20447;-75
2021/09/14 03:39:25;;;;;;;16.10;14.63;;;17.20;80.60;;;;;;5094946;28;20792;-75
2021/09/14 03:41:51;;;;;;;16.27;14.77;;;17.20;80.90;;;;;;5095146;28;20439;-75
2021/09/14 03:44:18;;;;;;;15.87;14.57;;;17.20;81.00;;;;;;5094915;28;20451;-75
2021/09/14 03:46:45;;;;;;;14.40;13.17;;;17.20;81.20;;;;;;5094986;28;20844;-75
2021/09/14 03:49:11;;;;;;;15.27;13.97;;;17.20;81.20;;;;;;5094999;28;20451;-75
2021/09/14 03:51:38;;;;;;;15.93;14.53;;;17.20;81.30;;;;;;5094671;28;20446;-75
2021/09/14 03:54:06;;;;;;;16.53;15.00;;;17.20;81.40;;;;;;5094963;28;20451;-75
2021/09/14 03:56:33;;;;;;;15.83;14.53;;;17.20;81.50;;;;;;5094788;28;20467;-75
2021/09/14 03:58:59;;;;;;;17.60;16.00;;;17.20;81.60;;;;;;5094833;28;20461;-75
2021/09/14 04:01:26;;;;;;;18.60;17.07;;;17.20;81.70;;;;;;5095030;28;20440;-75
2021/09/14 04:03:57;;;;;;;19.10;17.20;;;17.20;81.70;;;;;;5094687;28;20451;-75
2021/09/14 04:09:06;;;;;;;16.37;14.87;;;17.20;81.90;;;;;;5092664;28;20765;-75
2021/09/14 04:11:33;;;;;;;18.97;17.10;;;17.20;81.90;;;;;;5094649;28;20424;-74
2021/09/14 04:13:59;;;;;;;17.53;15.87;;;17.20;81.70;;;;;;5094504;28;20467;-74
2021/09/14 04:16:26;;;;;;;17.80;16.17;;;17.20;82.00;;;;;;5094437;28;20478;-74
2021/09/14 04:18:53;;;;;;;15.87;14.40;;;17.20;82.00;;;;;;5094416;28;20447;-74
2021/09/14 04:21:20;;;;;;;20.00;18.30;;;17.20;81.80;;;;;;5094093;28;20443;-74
2021/09/14 04:23:46;;;;;;;18.70;16.90;;;17.20;81.90;;;;;;5094287;28;20439;-74
2021/09/14 04:26:14;;;;;;;17.47;15.83;;;17.20;82.00;;;;;;5094123;28;20476;-74
2021/09/14 04:28:41;;;;;;;19.33;17.57;;;17.20;81.80;;;;;;5094235;28;20444;-74
2021/09/14 04:31:08;;;;;;;17.87;16.07;;;17.20;82.00;;;;;;5094215;28;20440;-75
2021/09/14 04:33:34;;;;;;;19.90;17.83;;;17.20;82.30;;;;;;5094114;28;20455;-76
2021/09/14 04:36:01;;;;;;;19.20;17.13;;;17.20;82.10;;;;;;5094066;28;20483;-75
2021/09/14 04:38:28;;;;;;;19.77;17.97;;;17.10;82.00;;;;;;5094073;28;20793;-75
2021/09/14 04:40:55;;;;;;;18.67;16.70;;;17.10;82.00;;;;;;5094094;28;20440;-76
2021/09/14 04:43:23;;;;;;;21.30;18.33;;;17.10;81.70;;;;;;5093608;28;20451;-75
2021/09/14 04:45:50;;;;;;;19.23;17.27;;;17.10;81.70;;;;;;5093738;28;20918;-75
2021/09/14 04:48:17;;;;;;;18.43;16.60;;;17.00;81.60;;;;;;5093936;28;20447;-75
2021/09/14 04:50:44;;;;;;;19.40;17.53;;;17.00;81.60;;;;;;5093904;28;20876;-75
2021/09/14 04:53:10;;;;;;;20.70;18.70;;;17.00;81.60;;;;;;5093890;28;20814;-75
2021/09/14 04:55:37;;;;;;;19.00;17.17;;;17.00;81.50;;;;;;5093807;28;20479;-75
2021/09/14 04:58:04;;;;;;;18.60;16.80;;;16.90;82.20;;;;;;5093504;28;20929;-75
2021/09/14 05:00:32;;;;;;;16.37;14.83;;;16.90;81.60;;;;;;5093814;28;20455;-75
2021/09/14 05:02:59;;;;;;;18.40;16.60;;;16.80;82.00;;;;;;5093752;28;20440;-75
2021/09/14 05:05:26;;;;;;;17.83;16.23;;;16.80;82.30;;;;;;5093668;28;20513;-75
2021/09/14 05:07:53;;;;;;;17.13;15.43;;;16.90;82.90;;;;;;5093261;28;20992;-74
2021/09/14 05:10:19;;;;;;;20.70;18.57;;;16.90;83.10;;;;;;5093972;28;20497;-74
2021/09/14 05:12:46;;;;;;;19.63;17.67;;;17.00;83.20;;;;;;5093688;28;20451;-74
2021/09/14 05:15:13;;;;;;;17.87;16.30;;;17.00;83.10;;;;;;5093584;28;20468;-74
2021/09/14 05:17:41;;;;;;;18.10;16.40;;;17.00;82.80;;;;;;5093628;28;20447;-74
2021/09/14 05:20:10;;;;;;;18.33;16.40;;;17.00;82.70;;;;;;5093605;28;20443;-74
2021/09/14 05:22:37;;;;;;;18.60;16.83;;;17.00;82.70;;;;;;5093339;28;20483;-74
2021/09/14 05:25:05;;;;;;;18.33;16.63;;;17.00;82.70;;;;;;5093502;28;20821;-74
2021/09/14 05:27:32;;;;;;;20.30;18.27;;;17.10;82.70;;;;;;5093647;28;20487;-74
2021/09/14 05:29:59;;;;;;;18.47;16.67;;;17.00;82.40;;;;;;5093509;28;20443;-74
2021/09/14 05:32:26;;;;;;;19.20;17.30;;;17.00;82.60;;;;;;5093386;28;20859;-74
2021/09/14 05:34:54;;;;;;;19.50;17.70;;;17.00;82.70;;;;;;5093377;28;20486;-74
2021/09/14 05:37:21;;;;;;;18.47;16.57;;;17.00;82.90;;;;;;5093249;28;20444;-74
2021/09/14 05:39:48;;;;;;;17.23;15.63;;;17.00;83.00;;;;;;5093248;28;20439;-74
2021/09/14 05:42:15;;;;;;;18.73;16.67;;;17.00;83.10;;;;;;5093293;28;20432;-74
2021/09/14 05:44:42;;;;;;;17.57;15.80;;;17.10;83.20;;;;;;5092983;28;20480;-74
2021/09/14 05:47:09;;;;;;;18.03;16.37;;;17.10;83.10;;;;;;5092857;28;20980;-74
2021/09/14 05:49:36;;;;;;;17.37;15.73;;;17.10;83.10;;;;;;5092915;28;20439;-74
2021/09/14 05:52:05;;;;;;;18.63;16.30;;;17.10;83.10;;;;;;5092860;28;20447;-75
2021/09/14 05:54:31;;;;;;;17.50;15.70;;;17.20;83.40;;;;;;5094273;28;20447;-74
2021/09/14 05:56:58;;;;;;;17.33;15.80;;;17.20;83.40;;;;;;5096862;28;20929;-75
2021/09/14 05:59:25;;;;;;;17.27;15.57;;;17.30;83.50;;;;;;5097202;28;20493;-75
2021/09/14 06:01:51;;;;;;;21.60;15.50;;;17.30;83.50;;;;;;5121155;22;20498;-69
2021/09/14 06:04:18;;;;;;;18.10;16.27;;;17.40;83.60;;;;;;5096775;28;20936;-69
2021/09/14 06:06:45;;;;;;;17.43;15.93;;;17.40;83.60;;;;;;5096954;28;20479;-69
2021/09/14 06:09:13;;;;;;;16.47;14.87;;;17.40;83.80;;;;;;5096943;28;20444;-69
2021/09/14 06:11:40;;;;;;;16.43;14.73;;;17.50;84.10;;;;;;5108918;28;20986;-69
2021/09/14 06:14:06;;;;;;;14.73;13.23;;;17.50;84.00;;;;;;5117560;28;20439;-70
2021/09/14 06:16:33;;;;;;;15.27;13.80;;;17.60;84.30;;;;;;5117250;28;20446;-71
2021/09/14 06:19:00;;;;;;;14.90;13.50;;;17.60;84.40;;;;;;5117177;28;20446;-70
2021/09/14 06:21:27;;;;;;;16.73;13.90;;;17.70;84.60;;;;;;5116758;28;20971;-70
2021/09/14 06:23:53;;;;;;;19.07;14.27;;;17.80;84.70;;;;;;5117127;28;20788;-70
2021/09/14 06:26:21;;;;;;;15.53;13.80;;;17.80;84.60;;;;;;5117005;28;20435;-69
2021/09/14 06:28:48;;;;;;;14.93;12.47;;;17.90;84.70;;;;;;5116689;28;20442;-70
2021/09/14 06:31:15;;;;;;;18.70;15.43;;;17.90;84.80;;;;;;5116923;28;20458;-69
2021/09/14 06:33:41;;;;;;;17.00;13.17;;;18.00;84.60;;;;;;5116894;28;20443;-69
2021/09/14 06:36:08;;;;;;;16.00;14.33;;;18.10;84.90;;;;;;5116566;28;20820;-69
2021/09/14 06:38:37;;;;;;;14.07;12.53;;;18.10;84.50;;;;;;5116788;28;20462;-69
2021/09/14 06:41:04;;;;;;;14.33;12.90;;;18.20;84.60;;;;;;5116722;28;20828;-69
2021/09/14 06:43:32;;;;;;;15.13;13.63;;;18.30;84.50;;;;;;5116757;28;20449;-69
2021/09/14 06:45:58;;;;;;;16.00;14.60;;;18.30;84.60;;;;;;5116707;28;20474;-69
2021/09/14 06:48:25;;;;;;;16.57;14.77;;;18.40;84.90;;;;;;5116219;28;20486;-69
2021/09/14 06:50:52;;;;;;;18.30;14.13;;;18.40;85.00;;;;;;5116559;28;20874;-69
2021/09/14 06:53:18;;;;;;;16.53;14.40;;;18.50;84.50;;;;;;5116530;28;20443;-69
2021/09/14 06:55:45;;;;;;;16.10;13.60;;;18.50;84.60;;;;;;5116351;28;20948;-69
2021/09/14 06:58:12;;;;;;;16.30;13.20;;;18.60;84.10;;;;;;5116471;28;20438;-69
2021/09/14 07:00:40;;;;;;;14.70;13.20;;;18.70;84.00;;;;;;5116142;28;20475;-70
2021/09/14 07:03:07;;;;;;;15.10;13.57;;;18.70;83.70;;;;;;5116385;28;20768;-70
2021/09/14 07:05:33;;;;;;;13.70;12.23;;;18.80;83.30;;;;;;5115974;28;20439;-70
2021/09/14 07:08:00;;;;;;;11.70;10.50;;;18.90;83.30;;;;;;5116115;28;20477;-70
2021/09/14 07:10:27;;;;;;;13.77;12.50;;;18.90;83.00;;;;;;5116155;28;20541;-70
2021/09/14 07:12:54;;;;;;;14.63;13.07;;;19.00;82.30;;;;;;5115841;28;20439;-70
2021/09/14 07:15:20;;;;;;;12.90;11.23;;;19.10;82.40;;;;;;5116098;28;20454;-70
2021/09/14 07:17:48;;;;;;;14.50;12.97;;;19.10;81.90;;;;;;5116036;28;20442;-70
2021/09/14 07:20:15;;;;;;;17.17;12.03;;;19.20;81.50;;;;;;5115919;28;20438;-70
2021/09/14 07:22:42;;;;;;;11.70;10.60;;;19.10;81.10;;;;;;5116011;28;20840;-70
2021/09/14 07:25:09;;;;;;;14.00;12.80;;;19.20;81.10;;;;;;5116153;28;20439;-70
2021/09/14 07:27:36;;;;;;;13.83;12.27;;;19.20;80.50;;;;;;5115448;28;20986;-70
2021/09/14 07:30:04;;;;;;;14.20;12.67;;;19.20;80.20;;;;;;5116096;28;20439;-70
2021/09/14 07:32:30;;;;;;;12.73;11.20;;;19.20;80.00;;;;;;5115710;28;20466;-70
2021/09/14 07:34:59;;;;;;;11.20;10.10;;;19.30;79.90;;;;;;5115691;28;20450;-70
2021/09/14 07:37:26;;;;;;;11.63;10.53;;;19.30;79.50;;;;;;5115891;28;20435;-70
2021/09/14 07:39:52;;;;;;;11.67;10.50;;;19.40;79.50;;;;;;5115600;28;20493;-70
2021/09/14 07:42:19;;;;;;;12.93;11.83;;;19.40;79.00;;;;;;5115550;28;20458;-70
2021/09/14 07:44:46;;;;;;;12.20;11.10;;;19.50;78.60;;;;;;5115590;27;20431;-70
2021/09/14 07:47:13;;;;;;;12.40;11.30;;;19.60;78.60;;;;;;5116300;28;20503;-70
2021/09/14 07:49:39;;;;;;;14.70;11.47;;;19.70;78.20;;;;;;5115439;28;20434;-70
2021/09/14 07:52:08;;;;;;;12.00;10.90;;;19.80;78.00;;;;;;5115345;28;20474;-70
2021/09/14 07:54:34;;;;;;;10.10;9.30;;;19.90;77.70;;;;;;5115358;28;20443;-70
2021/09/14 07:57:01;;;;;;;10.23;9.40;;;20.00;78.10;;;;;;5115274;28;20434;-70
2021/09/14 07:59:28;;;;;;;10.73;9.60;;;20.20;76.60;;;;;;5115238;28;20434;-70
2021/09/14 08:01:55;;;;;;;11.23;10.20;;;20.30;76.00;;;;;;5114967;28;20489;-70
2021/09/14 08:04:22;;;;;;;10.47;9.50;;;20.50;74.80;;;;;;5115411;28;20439;-70
2021/09/14 08:06:49;;;;;;;9.33;8.53;;;20.60;74.20;;;;;;5115010;28;20427;-70
2021/09/14 08:09:17;;;;;;;11.10;10.07;;;20.80;73.70;;;;;;5114808;28;20427;-70
2021/09/14 08:11:44;;;;;;;10.03;9.23;;;20.90;73.10;;;;;;5115251;28;20471;-70
2021/09/14 08:14:10;;;;;;;8.73;7.77;;;21.10;72.40;;;;;;5115831;28;20426;-70
2021/09/14 08:16:37;;;;;;;11.07;9.10;;;21.20;71.60;;;;;;5114413;28;20473;-70
2021/09/14 08:19:04;;;;;;;8.53;7.60;;;21.40;71.10;;;;;;5114623;28;20439;-70
2021/09/14 08:21:31;;;;;;;12.67;8.17;;;21.60;70.40;;;;;;5114704;28;20469;-70
2021/09/14 08:23:57;;;;;;;8.87;8.07;;;21.70;69.70;;;;;;5114795;28;20776;-70
2021/09/14 08:26:25;;;;;;;9.40;8.00;;;21.90;69.40;;;;;;5114697;28;20450;-70
2021/09/14 08:28:52;;;;;;;10.87;8.67;;;22.10;69.10;;;;;;5114577;28;20481;-70
2021/09/14 08:31:19;;;;;;;10.53;9.53;;;22.20;68.50;;;;;;5115255;28;20478;-70
2021/09/14 08:33:46;;;;;;;10.13;9.23;;;22.40;67.20;;;;;;5114888;28;20433;-70
2021/09/14 08:36:13;;;;;;;8.20;7.50;;;22.50;66.50;;;;;;5114196;28;20926;-70
2021/09/14 08:38:39;;;;;;;8.80;7.90;;;22.70;66.30;;;;;;5114748;28;20423;-70
2021/09/14 08:41:07;;;;;;;9.23;7.53;;;22.90;66.10;;;;;;5114400;28;20463;-71
2021/09/14 08:43:37;;;;;;;8.97;8.17;;;23.10;65.20;;;;;;5114429;28;20427;-70
2021/09/14 08:46:05;;;;;;;9.20;8.07;;;23.30;64.70;;;;;;5114387;28;20426;-70
2021/09/14 08:48:35;;;;;;;7.70;7.00;;;23.50;64.00;;;;;;5114250;28;20482;-70
2021/09/14 08:51:03;;;;;;;7.50;6.80;;;23.80;63.60;;;;;;5114272;28;20470;-71
2021/09/14 08:53:31;;;;;;;8.97;8.17;;;24.00;62.10;;;;;;5113949;28;20932;-70
2021/09/14 08:55:57;;;;;;;7.10;6.50;;;24.20;60.40;;;;;;5113918;28;20932;-70
2021/09/14 08:58:24;;;;;;;9.60;7.63;;;24.40;60.10;;;;;;5114208;28;20431;-71
2021/09/14 09:00:53;;;;;;;8.13;7.33;;;24.50;59.40;;;;;;5114015;28;20489;-70
2021/09/14 09:03:23;;;;;;;8.47;6.60;;;24.60;58.70;;;;;;5114144;28;20432;-70
2021/09/14 09:05:50;;;;;;;8.47;7.67;;;24.70;58.60;;;;;;5114143;28;20427;-70
2021/09/14 09:08:18;;;;;;;8.37;7.67;;;24.70;58.00;;;;;;5114013;28;20478;-70
2021/09/14 09:10:59;;;;;;;7.30;6.60;;;24.70;58.10;;;;;;5113739;28;20981;-71
2021/09/14 09:13:26;;;;;;;7.20;6.60;;;24.70;57.80;;;;;;5114049;28;20437;-70
2021/09/14 09:15:54;;;;;;;8.77;6.80;;;24.80;58.60;;;;;;5114009;28;20427;-70
2021/09/14 09:18:21;;;;;;;7.90;7.30;;;25.00;58.60;;;;;;5113950;28;20427;-70
2021/09/14 09:20:49;;;;;;;7.00;6.30;;;25.20;58.00;;;;;;5113841;28;20459;-71
2021/09/14 09:23:22;;;;;;;9.30;5.80;;;25.40;57.40;;;;;;5113914;28;20523;-71
2021/09/14 09:25:49;;;;;;;6.70;6.10;;;25.70;57.00;;;;;;5113960;28;20446;-71
2021/09/14 09:28:23;;;;;;;6.67;6.07;;;25.90;56.00;;;;;;5114507;28;20573;-71
2021/09/14 09:30:56;;;;;;;16.03;6.17;;;26.20;56.20;;;;;;5118089;28;20465;-71
2021/09/14 09:33:24;;;;;;;6.90;6.23;;;26.60;56.00;;;;;;5118072;28;20467;-71
2021/09/14 09:35:52;;;;;;;6.47;5.83;;;27.00;54.80;;;;;;5118043;28;20892;-71
2021/09/14 09:38:18;;;;;;;10.37;6.27;;;27.30;53.60;;;;;;5117941;28;20438;-71
2021/09/14 09:40:45;;;;;;;7.00;5.60;;;27.60;52.70;;;;;;5117834;28;20810;-71
2021/09/14 09:43:13;;;;;;;6.47;5.87;;;28.00;52.30;;;;;;5117866;28;20469;-71
2021/09/14 09:45:44;;;;;;;6.50;5.60;;;28.30;51.20;;;;;;5117828;28;20454;-71
2021/09/14 09:48:13;;;;;;;8.00;5.47;;;28.60;50.30;;;;;;5117474;28;20833;-71
2021/09/14 09:50:41;;;;;;;5.30;4.80;;;28.80;49.60;;;;;;5117676;28;20493;-71
2021/09/14 09:53:09;;;;;;;5.53;4.90;;;29.10;49.50;;;;;;5117683;28;20795;-71
2021/09/14 09:55:36;;;;;;;6.87;5.87;;;29.40;48.70;;;;;;5117496;28;20434;-71
2021/09/14 09:58:05;;;;;;;5.70;5.20;;;29.70;47.70;;;;;;5117543;28;20445;-71
2021/09/14 10:00:33;;;;;;;5.60;5.10;;;29.80;46.60;;;;;;5117355;28;20470;-71
2021/09/14 10:03:04;;;;;;;5.67;5.20;;;29.80;46.30;;;;;;5117524;28;20518;-71
2021/09/14 10:05:36;;;;;;;8.30;5.83;;;29.70;46.00;;;;;;5117429;28;20438;-71
2021/09/14 10:08:07;;;;;;;6.87;5.80;;;29.40;46.30;;;;;;5117272;28;20831;-71
2021/09/14 10:10:35;;;;;;;5.80;5.30;;;29.20;47.00;;;;;;5117040;27;20467;-71
2021/09/14 10:13:05;;;;;;;13.53;6.07;;;28.90;47.60;;;;;;5116646;28;20857;-71
2021/09/14 10:15:39;;;;;;;6.40;5.07;;;28.70;48.20;;;;;;5116875;28;20923;-71
2021/09/14 10:18:06;;;;;;;7.57;6.13;;;28.70;48.80;;;;;;5117300;28;20455;-71
2021/09/14 10:20:40;;;;;;;8.60;5.83;;;28.90;48.50;;;;;;5117175;28;20427;-71
2021/09/14 10:23:09;;;;;;;6.80;5.40;;;29.40;48.50;;;;;;5117174;28;20434;-71
2021/09/14 10:25:36;;;;;;;5.50;4.97;;;29.80;47.90;;;;;;5116954;28;20443;-71
2021/09/14 10:28:08;;;;;;;5.10;4.33;;;30.40;46.70;;;;;;5117233;28;20462;-71
2021/09/14 10:30:35;;;;;;;6.67;4.53;;;31.10;45.30;;;;;;5116640;28;20507;-71
2021/09/14 10:33:02;;;;;;;5.10;4.70;;;31.80;43.80;;;;;;5116946;28;20446;-71
2021/09/14 10:35:34;;;;;;;5.60;5.00;;;32.30;41.10;;;;;;5117165;28;20422;-71
2021/09/14 10:38:10;;;;;;;5.67;4.93;;;32.90;39.50;;;;;;5116941;28;20754;-71
2021/09/14 10:40:42;;;;;;;5.90;4.70;;;33.30;38.60;;;;;;5116803;28;20464;-71
2021/09/14 10:43:19;;;;;;;5.80;4.13;;;33.80;39.40;;;;;;5116526;28;20927;-71
2021/09/14 10:45:46;;;;;;;5.87;5.20;;;34.30;38.30;;;;;;5116750;28;20484;-71
2021/09/14 10:48:21;;;;;;;5.03;4.53;;;34.70;37.10;;;;;;5116238;28;20878;-71
2021/09/14 10:50:48;;;;;;;5.63;5.07;;;34.90;36.10;;;;;;5116397;28;20462;-71
2021/09/14 10:53:25;;;;;;;6.63;4.90;;;35.10;35.60;;;;;;5116218;28;20950;-71
2021/09/14 10:55:53;;;;;;;8.47;5.10;;;35.40;35.20;;;;;;5116173;28;20904;-71
2021/09/14 10:58:20;;;;;;;4.67;4.20;;;35.70;34.80;;;;;;5116552;27;20462;-71
2021/09/14 11:00:49;;;;;;;5.37;4.90;;;36.00;33.90;;;;;;5116286;27;20506;-71
2021/09/14 11:03:17;;;;;;;6.43;5.50;;;36.20;33.50;;;;;;5116046;28;20892;-71
2021/09/14 11:05:49;;;;;;;4.63;4.33;;;36.60;31.30;;;;;;5116311;28;20458;-71
2021/09/14 11:08:16;;;;;;;4.80;4.40;;;36.90;31.20;;;;;;5115963;28;20832;-71
2021/09/14 11:10:46;;;;;;;7.90;4.70;;;37.00;32.10;;;;;;5116325;28;20224;-72
2021/09/14 11:13:20;;;;;;;6.00;4.70;;;36.80;31.90;;;;;;5115786;28;20669;-72
2021/09/14 11:15:47;;;;;;;5.47;4.70;;;36.70;32.10;;;;;;5116187;28;20430;-71
2021/09/14 11:18:14;;;;;;;5.03;4.53;;;36.80;32.60;;;;;;5115540;28;20896;-71
2021/09/14 11:20:40;;;;;;;5.00;4.27;;;37.10;32.10;;;;;;5115926;28;20830;-71
2021/09/14 11:23:07;;;;;;;6.13;4.20;;;37.60;31.80;;;;;;5115890;28;20204;-71
2021/09/14 11:25:34;;;;;;;4.90;3.95;;;38.20;30.40;;;;;;5115951;28;20196;-71
2021/09/14 11:28:06;;;;;;;5.55;4.55;;;38.70;29.70;;;;;;5115849;28;20203;-71
2021/09/14 11:30:35;;;;;;;8.15;4.85;;;39.30;28.80;;;;;;5115830;28;20619;-72
2021/09/14 11:33:03;;;;;;;6.10;4.40;;;39.80;28.20;;;;;;5115858;28;20237;-71
2021/09/14 11:35:33;;;;;;;3.95;3.55;;;40.40;27.30;;;;;;5115554;28;20209;-71
2021/09/14 11:38:01;;;;;;;5.45;4.20;;;40.90;26.70;;;;;;5115514;28;20207;-71
2021/09/14 11:40:32;;;;;;;5.63;3.50;;;41.40;26.30;;;;;;5115478;28;20227;-71
2021/09/14 11:43:00;;;;;;;4.85;4.45;;;41.90;26.10;;;;;;5115656;28;20242;-71
2021/09/14 11:45:30;;;;;;;5.15;4.40;;;42.00;24.30;;;;;;5115291;28;20205;-72
2021/09/14 11:47:57;;;;;;;4.13;3.78;;;41.60;24.20;;;;;;5115391;28;20204;-72
2021/09/14 11:50:25;;;;;;;4.50;4.00;;;41.40;25.40;;;;;;5115267;28;20208;-72
2021/09/14 11:53:02;;;;;;;4.25;3.85;;;41.10;26.00;;;;;;5114246;28;20287;-72
2021/09/14 11:55:29;;;;;;;4.25;3.88;;;40.70;26.00;;;;;;5115894;28;20227;-72
2021/09/14 11:57:56;;;;;;;5.93;4.07;;;40.20;26.50;;;;;;5114577;28;20634;-72
2021/09/14 12:00:37;;;;;;;3.95;3.55;;;39.80;27.20;;;;;;5114574;28;20590;-72
2021/09/14 12:03:04;;;;;;;4.32;3.75;;;39.30;27.80;;;;;;5114774;28;20184;-72
2021/09/14 12:05:32;;;;;;;5.55;4.20;;;38.80;28.50;;;;;;5114800;28;20688;-72
2021/09/14 12:08:01;;;;;;;4.13;3.80;;;38.30;29.10;;;;;;5137376;22;20200;-76
2021/09/14 12:10:28;;;;;;;7.10;4.15;;;37.90;29.70;;;;;;5055137;28;20206;-77
2021/09/14 12:12:56;;;;;;;5.00;4.50;;;37.40;30.40;;;;;;5054267;28;20682;-77
2021/09/14 12:15:32;;;;;;;6.33;5.60;;;37.00;31.20;;;;;;5054802;28;20202;-77
2021/09/14 12:18:05;;;;;;;5.00;4.50;;;36.60;30.50;;;;;;5055365;28;20212;-77
2021/09/14 12:20:33;;;;;;;4.13;3.73;;;36.10;31.10;;;;;;5074504;28;20190;-76
2021/09/14 12:23:00;;;;;;;5.20;4.70;;;35.60;32.40;;;;;;5074548;28;20444;-77
2021/09/14 12:25:27;;;;;;;4.23;3.83;;;35.20;33.60;;;;;;5073954;28;20440;-77
2021/09/14 12:27:54;;;;;;;6.40;4.90;;;34.80;34.50;;;;;;5074070;28;20447;-77
2021/09/14 12:30:20;;;;;;;7.20;4.90;;;34.40;35.60;;;;;;5073964;28;20479;-77
2021/09/14 12:32:47;;;;;;;4.63;4.23;;;34.10;36.10;;;;;;5073658;28;20519;-77
2021/09/14 12:35:15;;;;;;;5.50;5.10;;;33.70;37.00;;;;;;5073832;28;20447;-77
2021/09/14 12:37:42;;;;;;;8.00;7.13;;;33.50;37.50;;;;;;5073581;28;20444;-76
2021/09/14 12:40:10;;;;;;;5.10;4.70;;;33.20;36.90;;;;;;5073809;28;20467;-76
2021/09/14 12:42:37;;;;;;;9.70;7.47;;;32.90;37.00;;;;;;5073862;28;20783;-77
2021/09/14 12:45:04;;;;;;;5.90;5.23;;;32.70;37.40;;;;;;5073373;28;20933;-76
2021/09/14 12:47:30;;;;;;;5.60;5.10;;;32.40;38.00;;;;;;5073735;28;20448;-76
2021/09/14 12:49:57;;;;;;;6.93;6.30;;;32.30;39.20;;;;;;5073638;28;20487;-77
2021/09/14 12:52:27;;;;;;;5.40;4.97;;;32.20;39.70;;;;;;5073389;28;20972;-76
2021/09/14 12:54:53;;;;;;;5.70;5.20;;;32.10;39.40;;;;;;5073606;28;20479;-77
2021/09/14 12:57:20;;;;;;;5.20;4.70;;;32.10;40.00;;;;;;5073578;28;20443;-76
2021/09/14 12:59:47;;;;;;;6.43;5.30;;;32.20;40.50;;;;;;5073265;28;20965;-76
2021/09/14 13:02:14;;;;;;;6.17;5.67;;;32.20;40.70;;;;;;5073551;28;20428;-76
2021/09/14 13:04:40;;;;;;;7.90;6.50;;;32.30;41.00;;;;;;5073320;28;20440;-77
2021/09/14 13:07:07;;;;;;;9.50;8.47;;;32.30;40.90;;;;;;5073458;28;20474;-77
2021/09/14 13:09:35;;;;;;;6.33;5.83;;;32.30;39.00;;;;;;5073151;28;20511;-77
2021/09/14 13:12:02;;;;;;;7.57;6.87;;;32.30;39.20;;;;;;5073392;28;20455;-76
2021/09/14 13:17:14;;;;;;;6.27;5.43;;;33.90;36.90;;;;;;5053156;28;20400;-76
2021/09/14 13:19:41;;;;;;;6.33;5.80;;;34.60;36.30;;;;;;5053173;28;20464;-76
2021/09/14 13:22:08;;;;;;;6.60;5.90;;;35.00;35.20;;;;;;5052755;28;20441;-76
2021/09/14 13:24:36;;;;;;;5.20;4.70;;;35.30;34.60;;;;;;5053076;28;20445;-77
2021/09/14 13:27:02;;;;;;;6.00;5.40;;;35.50;34.60;;;;;;5053044;28;20461;-76